sensor_id;sensor_type;location;lat;lon;timestamp;temperature;humidity
23597;DHT22;40226;50.874;4.394;2023-10-31T00:00:43;10.90;99.90
23597;DHT22;40226;50.874;4.394;2023-10-31T00:03:09;11.00;99.90
23597;DHT22;40226;50.874;4.394;2023-10-31T00:05:36;10.90;99.90
23597;DHT22;40226;50.874;4.394;2023-10-31T00:08:01;10.90;99.90
23597;DHT22;40226;50.874;4.394;2023-10-31T00:10:27;11.00;99.90
23597;DHT22;40226;50.874;4.394;2023-10-31T00:12:53;11.00;99.90
23597;DHT22;40226;50.874;4.394;2023-10-31T00:15:18;11.10;99.90
23597;DHT22;40226;50.874;4.394;2023-10-31T00:17:44;11.00;99.90
23597;DHT22;40226;50.874;4.394;2023-10-31T00:20:09;11.00;99.90
23597;DHT22;40226;50.874;4.394;2023-10-31T00:22:35;11.00;99.90
23597;DHT22;40226;50.874;4.394;2023-10-31T00:25:01;11.00;99.90
23597;DHT22;40226;50.874;4.394;2023-10-31T00:27:26;10.90;99.90
23597;DHT22;40226;50.874;4.394;2023-10-31T00:29:52;11.00;99.90
23597;DHT22;40226;50.874;4.394;2023-10-31T00:32:18;10.90;99.90
23597;DHT22;40226;50.874;4.394;2023-10-31T00:34:43;10.90;99.90
23597;DHT22;40226;50.874;4.394;2023-10-31T00:37:09;11.00;99.90
23597;DHT22;40226;50.874;4.394;2023-10-31T00:39:35;11.10;99.90
23597;DHT22;40226;50.874;4.394;2023-10-31T00:42:00;11.00;99.90
23597;DHT22;40226;50.874;4.394;2023-10-31T00:44:26;10.90;99.90
23597;DHT22;40226;50.874;4.394;2023-10-31T00:46:51;10.80;99.90
23597;DHT22;40226;50.874;4.394;2023-10-31T00:49:17;10.90;99.90
23597;DHT22;40226;50.874;4.394;2023-10-31T00:51:43;10.80;99.90
23597;DHT22;40226;50.874;4.394;2023-10-31T00:54:08;10.70;99.90
23597;DHT22;40226;50.874;4.394;2023-10-31T00:56:34;10.70;99.90
23597;DHT22;40226;50.874;4.394;2023-10-31T00:59:00;10.80;99.90
23597;DHT22;40226;50.874;4.394;2023-10-31T01:01:25;10.80;99.90
23597;DHT22;40226;50.874;4.394;2023-10-31T01:03:51;10.90;99.90
23597;DHT22;40226;50.874;4.394;2023-10-31T01:06:16;10.90;99.90
23597;DHT22;40226;50.874;4.394;2023-10-31T01:08:42;10.90;99.90
23597;DHT22;40226;50.874;4.394;2023-10-31T01:11:08;10.80;99.90
23597;DHT22;40226;50.874;4.394;2023-10-31T01:13:33;10.80;99.90
23597;DHT22;40226;50.874;4.394;2023-10-31T01:15:59;10.70;99.90
23597;DHT22;40226;50.874;4.394;2023-10-31T01:18:24;10.80;99.90
23597;DHT22;40226;50.874;4.394;2023-10-31T01:20:50;10.80;99.90
23597;DHT22;40226;50.874;4.394;2023-10-31T01:23:15;10.80;99.90
23597;DHT22;40226;50.874;4.394;2023-10-31T01:25:41;10.80;99.90
23597;DHT22;40226;50.874;4.394;2023-10-31T01:28:07;10.80;99.90
23597;DHT22;40226;50.874;4.394;2023-10-31T01:30:32;10.90;99.90
23597;DHT22;40226;50.874;4.394;2023-10-31T01:32:58;10.90;99.90
23597;DHT22;40226;50.874;4.394;2023-10-31T01:35:23;10.80;99.90
23597;DHT22;40226;50.874;4.394;2023-10-31T01:37:49;10.70;99.90
23597;DHT22;40226;50.874;4.394;2023-10-31T01:40:14;10.70;99.90
23597;DHT22;40226;50.874;4.394;2023-10-31T01:42:40;10.60;99.90
23597;DHT22;40226;50.874;4.394;2023-10-31T01:45:06;10.60;99.90
23597;DHT22;40226;50.874;4.394;2023-10-31T01:47:32;10.70;99.90
23597;DHT22;40226;50.874;4.394;2023-10-31T01:49:58;10.70;99.90
23597;DHT22;40226;50.874;4.394;2023-10-31T01:52:25;10.70;99.90
23597;DHT22;40226;50.874;4.394;2023-10-31T01:54:50;10.70;99.90
23597;DHT22;40226;50.874;4.394;2023-10-31T01:57:19;10.80;99.90
23597;DHT22;40226;50.874;4.394;2023-10-31T01:59:46;10.80;99.90
23597;DHT22;40226;50.874;4.394;2023-10-31T02:02:11;10.70;99.90
23597;DHT22;40226;50.874;4.394;2023-10-31T02:04:37;10.70;99.90
23597;DHT22;40226;50.874;4.394;2023-10-31T02:07:03;10.80;99.90
23597;DHT22;40226;50.874;4.394;2023-10-31T02:09:28;10.80;99.90
23597;DHT22;40226;50.874;4.394;2023-10-31T02:11:55;10.90;99.90
23597;DHT22;40226;50.874;4.394;2023-10-31T02:14:23;10.80;99.90
23597;DHT22;40226;50.874;4.394;2023-10-31T02:16:48;10.90;99.90
23597;DHT22;40226;50.874;4.394;2023-10-31T02:19:19;10.80;99.90
23597;DHT22;40226;50.874;4.394;2023-10-31T02:21:44;10.80;99.90
23597;DHT22;40226;50.874;4.394;2023-10-31T02:24:10;10.90;99.90
23597;DHT22;40226;50.874;4.394;2023-10-31T02:26:35;10.80;99.90
23597;DHT22;40226;50.874;4.394;2023-10-31T02:29:01;10.70;99.90
23597;DHT22;40226;50.874;4.394;2023-10-31T02:31:27;10.60;99.90
23597;DHT22;40226;50.874;4.394;2023-10-31T02:33:53;10.60;99.90
23597;DHT22;40226;50.874;4.394;2023-10-31T02:36:19;10.60;99.90
23597;DHT22;40226;50.874;4.394;2023-10-31T02:38:45;10.60;99.90
23597;DHT22;40226;50.874;4.394;2023-10-31T02:41:11;10.60;99.90
23597;DHT22;40226;50.874;4.394;2023-10-31T02:43:38;10.60;99.90
23597;DHT22;40226;50.874;4.394;2023-10-31T02:46:04;10.60;99.90
23597;DHT22;40226;50.874;4.394;2023-10-31T02:48:29;10.50;99.90
23597;DHT22;40226;50.874;4.394;2023-10-31T02:50:57;10.60;99.90
23597;DHT22;40226;50.874;4.394;2023-10-31T02:53:23;10.50;99.90
23597;DHT22;40226;50.874;4.394;2023-10-31T02:55:49;10.50;99.90
23597;DHT22;40226;50.874;4.394;2023-10-31T02:58:14;10.40;99.90
23597;DHT22;40226;50.874;4.394;2023-10-31T03:00:40;10.50;99.90
23597;DHT22;40226;50.874;4.394;2023-10-31T03:03:05;10.50;99.90
23597;DHT22;40226;50.874;4.394;2023-10-31T03:05:31;10.40;99.90
23597;DHT22;40226;50.874;4.394;2023-10-31T03:07:56;10.50;99.90
23597;DHT22;40226;50.874;4.394;2023-10-31T03:10:22;10.50;99.90
23597;DHT22;40226;50.874;4.394;2023-10-31T03:12:48;10.60;99.90
23597;DHT22;40226;50.874;4.394;2023-10-31T03:15:13;10.50;99.90
23597;DHT22;40226;50.874;4.394;2023-10-31T03:17:39;10.50;99.90
23597;DHT22;40226;50.874;4.394;2023-10-31T03:20:05;10.50;99.90
23597;DHT22;40226;50.874;4.394;2023-10-31T03:22:31;10.50;99.90
23597;DHT22;40226;50.874;4.394;2023-10-31T03:24:56;10.50;99.90
23597;DHT22;40226;50.874;4.394;2023-10-31T03:27:22;10.50;99.90
23597;DHT22;40226;50.874;4.394;2023-10-31T03:29:48;10.40;99.90
23597;DHT22;40226;50.874;4.394;2023-10-31T03:32:14;10.50;99.90
23597;DHT22;40226;50.874;4.394;2023-10-31T03:34:40;10.40;99.90
23597;DHT22;40226;50.874;4.394;2023-10-31T03:37:06;10.30;99.90
23597;DHT22;40226;50.874;4.394;2023-10-31T03:39:31;10.40;99.90
23597;DHT22;40226;50.874;4.394;2023-10-31T03:41:57;10.50;99.90
23597;DHT22;40226;50.874;4.394;2023-10-31T03:44:23;10.60;99.90
23597;DHT22;40226;50.874;4.394;2023-10-31T03:46:48;10.40;99.90
23597;DHT22;40226;50.874;4.394;2023-10-31T03:49:14;10.30;99.90
23597;DHT22;40226;50.874;4.394;2023-10-31T03:51:39;10.30;99.90
23597;DHT22;40226;50.874;4.394;2023-10-31T03:54:05;10.30;99.90
23597;DHT22;40226;50.874;4.394;2023-10-31T03:56:30;10.30;99.90
23597;DHT22;40226;50.874;4.394;2023-10-31T03:59:03;10.30;99.90
23597;DHT22;40226;50.874;4.394;2023-10-31T04:01:28;10.30;99.90
23597;DHT22;40226;50.874;4.394;2023-10-31T04:03:54;10.20;99.90
23597;DHT22;40226;50.874;4.394;2023-10-31T04:06:19;10.20;99.90
23597;DHT22;40226;50.874;4.394;2023-10-31T04:08:45;10.30;99.90
23597;DHT22;40226;50.874;4.394;2023-10-31T04:11:10;10.30;99.90
23597;DHT22;40226;50.874;4.394;2023-10-31T04:13:36;10.30;99.90
23597;DHT22;40226;50.874;4.394;2023-10-31T04:16:02;10.30;99.90
23597;DHT22;40226;50.874;4.394;2023-10-31T04:18:28;10.20;99.90
23597;DHT22;40226;50.874;4.394;2023-10-31T04:20:53;10.20;99.90
23597;DHT22;40226;50.874;4.394;2023-10-31T04:23:19;10.20;99.90
23597;DHT22;40226;50.874;4.394;2023-10-31T04:25:45;10.20;99.90
23597;DHT22;40226;50.874;4.394;2023-10-31T04:28:11;10.20;99.90
23597;DHT22;40226;50.874;4.394;2023-10-31T04:30:38;10.10;99.90
23597;DHT22;40226;50.874;4.394;2023-10-31T04:33:04;10.00;99.90
23597;DHT22;40226;50.874;4.394;2023-10-31T04:35:29;10.00;99.90
23597;DHT22;40226;50.874;4.394;2023-10-31T04:37:55;10.00;99.90
23597;DHT22;40226;50.874;4.394;2023-10-31T04:40:22;10.00;99.90
23597;DHT22;40226;50.874;4.394;2023-10-31T04:42:47;10.10;99.90
23597;DHT22;40226;50.874;4.394;2023-10-31T04:45:13;10.10;99.90
23597;DHT22;40226;50.874;4.394;2023-10-31T04:47:40;10.20;99.90
23597;DHT22;40226;50.874;4.394;2023-10-31T04:50:05;10.20;99.90
23597;DHT22;40226;50.874;4.394;2023-10-31T04:52:31;10.20;99.90
23597;DHT22;40226;50.874;4.394;2023-10-31T04:54:56;10.30;99.90
23597;DHT22;40226;50.874;4.394;2023-10-31T04:57:22;10.30;99.90
23597;DHT22;40226;50.874;4.394;2023-10-31T04:59:48;10.30;99.90
23597;DHT22;40226;50.874;4.394;2023-10-31T05:02:14;10.20;99.90
23597;DHT22;40226;50.874;4.394;2023-10-31T05:04:39;10.30;99.90
23597;DHT22;40226;50.874;4.394;2023-10-31T05:07:06;10.40;99.90
23597;DHT22;40226;50.874;4.394;2023-10-31T05:09:31;10.50;99.90
23597;DHT22;40226;50.874;4.394;2023-10-31T05:11:57;10.50;99.90
23597;DHT22;40226;50.874;4.394;2023-10-31T05:14:22;10.60;99.90
23597;DHT22;40226;50.874;4.394;2023-10-31T05:16:48;10.60;99.90
23597;DHT22;40226;50.874;4.394;2023-10-31T05:19:13;10.50;99.90
23597;DHT22;40226;50.874;4.394;2023-10-31T05:21:39;10.40;99.90
23597;DHT22;40226;50.874;4.394;2023-10-31T05:24:05;10.50;99.90
23597;DHT22;40226;50.874;4.394;2023-10-31T05:26:31;10.50;99.90
23597;DHT22;40226;50.874;4.394;2023-10-31T05:28:57;10.60;99.90
23597;DHT22;40226;50.874;4.394;2023-10-31T05:31:23;10.60;99.90
23597;DHT22;40226;50.874;4.394;2023-10-31T05:33:50;10.50;99.90
23597;DHT22;40226;50.874;4.394;2023-10-31T05:36:26;10.50;99.90
23597;DHT22;40226;50.874;4.394;2023-10-31T05:38:53;10.50;99.90
23597;DHT22;40226;50.874;4.394;2023-10-31T05:41:19;10.50;99.90
23597;DHT22;40226;50.874;4.394;2023-10-31T05:43:44;10.60;99.90
23597;DHT22;40226;50.874;4.394;2023-10-31T05:46:10;10.60;99.90
23597;DHT22;40226;50.874;4.394;2023-10-31T05:48:43;10.60;99.90
23597;DHT22;40226;50.874;4.394;2023-10-31T05:51:19;10.70;99.90
23597;DHT22;40226;50.874;4.394;2023-10-31T05:53:46;10.70;99.90
23597;DHT22;40226;50.874;4.394;2023-10-31T05:56:13;10.60;99.90
23597;DHT22;40226;50.874;4.394;2023-10-31T05:58:40;10.60;99.90
23597;DHT22;40226;50.874;4.394;2023-10-31T06:01:06;10.60;99.90
23597;DHT22;40226;50.874;4.394;2023-10-31T06:03:32;10.60;99.90
23597;DHT22;40226;50.874;4.394;2023-10-31T06:05:58;10.50;99.90
23597;DHT22;40226;50.874;4.394;2023-10-31T06:08:23;10.60;99.90
23597;DHT22;40226;50.874;4.394;2023-10-31T06:10:50;10.60;99.90
23597;DHT22;40226;50.874;4.394;2023-10-31T06:13:16;10.60;99.90
23597;DHT22;40226;50.874;4.394;2023-10-31T06:15:42;10.60;99.90
23597;DHT22;40226;50.874;4.394;2023-10-31T06:18:08;10.70;99.90
23597;DHT22;40226;50.874;4.394;2023-10-31T06:20:33;10.70;99.90
23597;DHT22;40226;50.874;4.394;2023-10-31T06:23:00;10.70;99.90
23597;DHT22;40226;50.874;4.394;2023-10-31T06:25:29;10.70;99.90
23597;DHT22;40226;50.874;4.394;2023-10-31T06:27:54;10.80;99.90
23597;DHT22;40226;50.874;4.394;2023-10-31T06:30:20;10.70;99.90
23597;DHT22;40226;50.874;4.394;2023-10-31T06:32:46;10.70;99.90
23597;DHT22;40226;50.874;4.394;2023-10-31T06:35:11;10.60;99.90
23597;DHT22;40226;50.874;4.394;2023-10-31T06:37:37;10.60;99.90
23597;DHT22;40226;50.874;4.394;2023-10-31T06:40:03;10.60;99.90
23597;DHT22;40226;50.874;4.394;2023-10-31T06:42:30;10.60;99.90
23597;DHT22;40226;50.874;4.394;2023-10-31T06:44:55;10.60;99.90
23597;DHT22;40226;50.874;4.394;2023-10-31T06:47:21;10.50;99.90
23597;DHT22;40226;50.874;4.394;2023-10-31T06:49:46;10.60;99.90
23597;DHT22;40226;50.874;4.394;2023-10-31T06:52:12;10.50;99.90
23597;DHT22;40226;50.874;4.394;2023-10-31T06:54:38;10.50;99.90
23597;DHT22;40226;50.874;4.394;2023-10-31T06:57:03;10.50;99.90
23597;DHT22;40226;50.874;4.394;2023-10-31T06:59:29;10.60;99.90
23597;DHT22;40226;50.874;4.394;2023-10-31T07:01:55;10.50;99.90
23597;DHT22;40226;50.874;4.394;2023-10-31T07:04:20;10.50;99.90
23597;DHT22;40226;50.874;4.394;2023-10-31T07:06:46;10.50;99.90
23597;DHT22;40226;50.874;4.394;2023-10-31T07:09:12;10.50;99.90
23597;DHT22;40226;50.874;4.394;2023-10-31T07:11:37;10.50;99.90
23597;DHT22;40226;50.874;4.394;2023-10-31T07:14:03;10.60;99.90
23597;DHT22;40226;50.874;4.394;2023-10-31T07:16:29;10.60;99.90
23597;DHT22;40226;50.874;4.394;2023-10-31T07:18:55;10.60;99.90
23597;DHT22;40226;50.874;4.394;2023-10-31T07:21:20;10.60;99.90
23597;DHT22;40226;50.874;4.394;2023-10-31T07:23:46;10.70;99.90
23597;DHT22;40226;50.874;4.394;2023-10-31T07:26:12;10.80;99.90
23597;DHT22;40226;50.874;4.394;2023-10-31T07:28:37;10.70;99.90
23597;DHT22;40226;50.874;4.394;2023-10-31T07:31:04;10.60;99.90
23597;DHT22;40226;50.874;4.394;2023-10-31T07:33:30;10.60;99.90
23597;DHT22;40226;50.874;4.394;2023-10-31T07:35:55;10.70;99.90
23597;DHT22;40226;50.874;4.394;2023-10-31T07:38:21;10.80;99.90
23597;DHT22;40226;50.874;4.394;2023-10-31T07:40:47;10.60;99.90
23597;DHT22;40226;50.874;4.394;2023-10-31T07:43:14;10.80;99.90
23597;DHT22;40226;50.874;4.394;2023-10-31T07:45:39;10.70;99.90
23597;DHT22;40226;50.874;4.394;2023-10-31T07:48:05;10.70;99.90
23597;DHT22;40226;50.874;4.394;2023-10-31T07:50:31;10.70;99.90
23597;DHT22;40226;50.874;4.394;2023-10-31T07:52:56;10.80;99.90
23597;DHT22;40226;50.874;4.394;2023-10-31T07:55:22;10.90;99.90
23597;DHT22;40226;50.874;4.394;2023-10-31T07:57:47;10.90;99.90
23597;DHT22;40226;50.874;4.394;2023-10-31T08:00:13;11.00;99.90
23597;DHT22;40226;50.874;4.394;2023-10-31T08:02:39;10.90;99.90
23597;DHT22;40226;50.874;4.394;2023-10-31T08:05:05;11.10;99.90
23597;DHT22;40226;50.874;4.394;2023-10-31T08:07:31;11.10;99.90
23597;DHT22;40226;50.874;4.394;2023-10-31T08:09:56;11.00;99.90
23597;DHT22;40226;50.874;4.394;2023-10-31T08:12:22;10.90;99.90
23597;DHT22;40226;50.874;4.394;2023-10-31T08:14:48;11.00;99.90
23597;DHT22;40226;50.874;4.394;2023-10-31T08:17:14;10.90;99.90
23597;DHT22;40226;50.874;4.394;2023-10-31T08:19:39;10.90;99.90
23597;DHT22;40226;50.874;4.394;2023-10-31T08:22:05;11.00;99.90
23597;DHT22;40226;50.874;4.394;2023-10-31T08:24:30;11.00;99.90
23597;DHT22;40226;50.874;4.394;2023-10-31T08:26:56;11.00;99.90
23597;DHT22;40226;50.874;4.394;2023-10-31T08:29:22;11.20;99.90
23597;DHT22;40226;50.874;4.394;2023-10-31T08:31:47;11.10;99.90
23597;DHT22;40226;50.874;4.394;2023-10-31T08:34:13;11.10;99.90
23597;DHT22;40226;50.874;4.394;2023-10-31T08:36:38;11.10;99.90
23597;DHT22;40226;50.874;4.394;2023-10-31T08:39:04;11.10;99.90
23597;DHT22;40226;50.874;4.394;2023-10-31T08:41:30;11.10;99.90
23597;DHT22;40226;50.874;4.394;2023-10-31T08:43:55;11.00;99.90
23597;DHT22;40226;50.874;4.394;2023-10-31T08:46:23;11.10;99.90
23597;DHT22;40226;50.874;4.394;2023-10-31T08:48:49;11.10;99.90
23597;DHT22;40226;50.874;4.394;2023-10-31T08:51:15;11.10;99.90
23597;DHT22;40226;50.874;4.394;2023-10-31T08:53:40;11.10;99.90
23597;DHT22;40226;50.874;4.394;2023-10-31T08:56:06;11.20;99.90
23597;DHT22;40226;50.874;4.394;2023-10-31T08:58:32;11.30;99.90
23597;DHT22;40226;50.874;4.394;2023-10-31T09:00:58;11.40;99.90
23597;DHT22;40226;50.874;4.394;2023-10-31T09:03:24;11.40;99.90
23597;DHT22;40226;50.874;4.394;2023-10-31T09:05:49;11.50;99.90
23597;DHT22;40226;50.874;4.394;2023-10-31T09:08:15;11.50;99.90
23597;DHT22;40226;50.874;4.394;2023-10-31T09:10:41;11.50;99.90
23597;DHT22;40226;50.874;4.394;2023-10-31T09:13:08;11.70;99.90
23597;DHT22;40226;50.874;4.394;2023-10-31T09:15:35;11.70;99.90
23597;DHT22;40226;50.874;4.394;2023-10-31T09:18:01;11.90;99.90
23597;DHT22;40226;50.874;4.394;2023-10-31T09:20:27;12.00;99.90
23597;DHT22;40226;50.874;4.394;2023-10-31T09:22:54;11.90;99.90
23597;DHT22;40226;50.874;4.394;2023-10-31T09:25:20;12.10;99.90
23597;DHT22;40226;50.874;4.394;2023-10-31T09:27:45;12.10;99.90
23597;DHT22;40226;50.874;4.394;2023-10-31T09:30:11;12.00;99.90
23597;DHT22;40226;50.874;4.394;2023-10-31T09:32:37;12.20;99.90
23597;DHT22;40226;50.874;4.394;2023-10-31T09:35:02;12.10;99.90
23597;DHT22;40226;50.874;4.394;2023-10-31T09:37:28;12.20;99.90
23597;DHT22;40226;50.874;4.394;2023-10-31T09:39:54;12.30;99.90
23597;DHT22;40226;50.874;4.394;2023-10-31T09:42:21;12.20;99.90
23597;DHT22;40226;50.874;4.394;2023-10-31T09:44:46;12.10;99.90
23597;DHT22;40226;50.874;4.394;2023-10-31T09:47:12;11.90;99.90
23597;DHT22;40226;50.874;4.394;2023-10-31T09:49:38;12.00;99.90
23597;DHT22;40226;50.874;4.394;2023-10-31T09:52:04;11.90;99.90
23597;DHT22;40226;50.874;4.394;2023-10-31T09:54:30;12.00;99.90
23597;DHT22;40226;50.874;4.394;2023-10-31T09:56:56;11.90;99.90
23597;DHT22;40226;50.874;4.394;2023-10-31T09:59:21;11.90;99.90
23597;DHT22;40226;50.874;4.394;2023-10-31T10:01:47;12.00;99.90
23597;DHT22;40226;50.874;4.394;2023-10-31T10:04:13;11.80;99.90
23597;DHT22;40226;50.874;4.394;2023-10-31T10:07:01;11.80;99.90
23597;DHT22;40226;50.874;4.394;2023-10-31T10:09:27;11.80;99.90
23597;DHT22;40226;50.874;4.394;2023-10-31T10:11:53;11.90;99.90
23597;DHT22;40226;50.874;4.394;2023-10-31T10:14:22;12.00;99.90
23597;DHT22;40226;50.874;4.394;2023-10-31T10:16:48;12.20;99.90
23597;DHT22;40226;50.874;4.394;2023-10-31T10:19:22;12.30;99.90
23597;DHT22;40226;50.874;4.394;2023-10-31T10:22:05;12.40;99.90
23597;DHT22;40226;50.874;4.394;2023-10-31T10:24:31;12.30;99.90
23597;DHT22;40226;50.874;4.394;2023-10-31T10:26:57;12.20;99.90
23597;DHT22;40226;50.874;4.394;2023-10-31T10:29:23;12.10;99.90
23597;DHT22;40226;50.874;4.394;2023-10-31T10:31:49;12.10;99.90
23597;DHT22;40226;50.874;4.394;2023-10-31T10:34:15;12.20;99.90
23597;DHT22;40226;50.874;4.394;2023-10-31T10:36:48;12.20;99.90
23597;DHT22;40226;50.874;4.394;2023-10-31T10:39:22;12.10;99.90
23597;DHT22;40226;50.874;4.394;2023-10-31T10:41:55;12.10;99.90
23597;DHT22;40226;50.874;4.394;2023-10-31T10:44:43;12.20;99.90
23597;DHT22;40226;50.874;4.394;2023-10-31T10:47:12;12.30;99.90
23597;DHT22;40226;50.874;4.394;2023-10-31T10:49:41;12.40;99.90
23597;DHT22;40226;50.874;4.394;2023-10-31T10:52:27;12.50;99.90
23597;DHT22;40226;50.874;4.394;2023-10-31T10:55:13;12.50;99.90
23597;DHT22;40226;50.874;4.394;2023-10-31T10:58:05;12.90;99.90
23597;DHT22;40226;50.874;4.394;2023-10-31T11:00:31;13.20;99.90
23597;DHT22;40226;50.874;4.394;2023-10-31T11:02:57;13.10;99.90
23597;DHT22;40226;50.874;4.394;2023-10-31T11:05:24;13.00;99.90
23597;DHT22;40226;50.874;4.394;2023-10-31T11:07:52;12.90;99.90
23597;DHT22;40226;50.874;4.394;2023-10-31T11:10:18;12.80;99.90
23597;DHT22;40226;50.874;4.394;2023-10-31T11:12:44;12.70;99.90
23597;DHT22;40226;50.874;4.394;2023-10-31T11:15:14;12.40;99.90
23597;DHT22;40226;50.874;4.394;2023-10-31T11:17:42;12.40;99.90
23597;DHT22;40226;50.874;4.394;2023-10-31T11:20:10;12.50;99.90
23597;DHT22;40226;50.874;4.394;2023-10-31T11:22:41;12.50;99.90
23597;DHT22;40226;50.874;4.394;2023-10-31T11:25:20;12.40;99.90
23597;DHT22;40226;50.874;4.394;2023-10-31T11:27:46;12.40;99.90
23597;DHT22;40226;50.874;4.394;2023-10-31T11:30:33;12.30;99.90
23597;DHT22;40226;50.874;4.394;2023-10-31T11:32:59;12.30;99.90
23597;DHT22;40226;50.874;4.394;2023-10-31T11:35:29;12.30;99.90
23597;DHT22;40226;50.874;4.394;2023-10-31T11:38:06;12.00;99.90
23597;DHT22;40226;50.874;4.394;2023-10-31T11:41:00;12.00;99.90
23597;DHT22;40226;50.874;4.394;2023-10-31T11:43:56;12.00;99.90
23597;DHT22;40226;50.874;4.394;2023-10-31T11:46:25;11.90;99.90
23597;DHT22;40226;50.874;4.394;2023-10-31T11:48:51;11.90;99.90
23597;DHT22;40226;50.874;4.394;2023-10-31T11:51:17;12.00;99.90
23597;DHT22;40226;50.874;4.394;2023-10-31T11:53:44;12.10;99.90
23597;DHT22;40226;50.874;4.394;2023-10-31T11:56:10;12.10;99.90
23597;DHT22;40226;50.874;4.394;2023-10-31T11:58:36;12.20;99.90
23597;DHT22;40226;50.874;4.394;2023-10-31T12:01:04;12.20;99.90
23597;DHT22;40226;50.874;4.394;2023-10-31T12:03:40;12.10;99.90
23597;DHT22;40226;50.874;4.394;2023-10-31T12:06:08;12.10;99.90
23597;DHT22;40226;50.874;4.394;2023-10-31T12:08:38;12.00;99.90
23597;DHT22;40226;50.874;4.394;2023-10-31T12:13:39;12.00;99.90
23597;DHT22;40226;50.874;4.394;2023-10-31T12:16:06;12.00;99.90
23597;DHT22;40226;50.874;4.394;2023-10-31T12:18:36;11.90;99.90
23597;DHT22;40226;50.874;4.394;2023-10-31T12:21:02;11.70;99.90
23597;DHT22;40226;50.874;4.394;2023-10-31T12:23:28;11.70;99.90
23597;DHT22;40226;50.874;4.394;2023-10-31T12:25:54;11.60;99.90
23597;DHT22;40226;50.874;4.394;2023-10-31T12:28:24;11.50;99.90
23597;DHT22;40226;50.874;4.394;2023-10-31T12:30:52;11.50;99.90
23597;DHT22;40226;50.874;4.394;2023-10-31T12:33:20;11.50;99.90
23597;DHT22;40226;50.874;4.394;2023-10-31T12:35:48;11.50;99.90
23597;DHT22;40226;50.874;4.394;2023-10-31T12:38:15;11.50;99.90
23597;DHT22;40226;50.874;4.394;2023-10-31T12:40:43;11.60;99.90
23597;DHT22;40226;50.874;4.394;2023-10-31T12:43:09;11.60;99.90
23597;DHT22;40226;50.874;4.394;2023-10-31T12:45:35;11.60;99.90
23597;DHT22;40226;50.874;4.394;2023-10-31T12:50:32;11.60;99.90
23597;DHT22;40226;50.874;4.394;2023-10-31T12:52:57;11.70;99.90
23597;DHT22;40226;50.874;4.394;2023-10-31T12:55:27;11.70;99.90
23597;DHT22;40226;50.874;4.394;2023-10-31T12:57:54;11.80;99.90
23597;DHT22;40226;50.874;4.394;2023-10-31T13:00:21;11.80;99.90
23597;DHT22;40226;50.874;4.394;2023-10-31T13:03:00;11.90;99.90
23597;DHT22;40226;50.874;4.394;2023-10-31T13:05:26;11.90;99.90
23597;DHT22;40226;50.874;4.394;2023-10-31T13:07:54;11.80;99.90
23597;DHT22;40226;50.874;4.394;2023-10-31T13:10:24;11.70;99.90
23597;DHT22;40226;50.874;4.394;2023-10-31T13:12:50;11.70;99.90
23597;DHT22;40226;50.874;4.394;2023-10-31T13:15:17;11.80;99.90
23597;DHT22;40226;50.874;4.394;2023-10-31T13:17:46;11.80;99.90
23597;DHT22;40226;50.874;4.394;2023-10-31T13:20:14;11.80;99.90
23597;DHT22;40226;50.874;4.394;2023-10-31T13:22:41;11.70;99.90
23597;DHT22;40226;50.874;4.394;2023-10-31T13:25:09;11.60;99.90
23597;DHT22;40226;50.874;4.394;2023-10-31T13:27:42;11.60;99.90
23597;DHT22;40226;50.874;4.394;2023-10-31T13:30:11;11.70;99.90
23597;DHT22;40226;50.874;4.394;2023-10-31T13:32:38;11.70;99.90
23597;DHT22;40226;50.874;4.394;2023-10-31T13:35:04;11.80;99.90
23597;DHT22;40226;50.874;4.394;2023-10-31T13:37:30;11.80;99.90
23597;DHT22;40226;50.874;4.394;2023-10-31T13:39:56;11.70;99.90
23597;DHT22;40226;50.874;4.394;2023-10-31T13:42:22;11.80;99.90
23597;DHT22;40226;50.874;4.394;2023-10-31T13:44:47;11.70;99.90
23597;DHT22;40226;50.874;4.394;2023-10-31T13:47:14;11.80;99.90
23597;DHT22;40226;50.874;4.394;2023-10-31T13:49:39;12.00;99.90
23597;DHT22;40226;50.874;4.394;2023-10-31T13:52:05;12.00;99.90
23597;DHT22;40226;50.874;4.394;2023-10-31T13:54:34;12.00;99.90
23597;DHT22;40226;50.874;4.394;2023-10-31T13:57:00;11.90;99.90
23597;DHT22;40226;50.874;4.394;2023-10-31T13:59:26;12.00;99.90
23597;DHT22;40226;50.874;4.394;2023-10-31T14:01:51;12.20;99.90
23597;DHT22;40226;50.874;4.394;2023-10-31T14:04:18;12.40;99.90
23597;DHT22;40226;50.874;4.394;2023-10-31T14:06:44;12.50;99.90
23597;DHT22;40226;50.874;4.394;2023-10-31T14:09:10;12.70;99.90
23597;DHT22;40226;50.874;4.394;2023-10-31T14:11:37;12.70;99.90
23597;DHT22;40226;50.874;4.394;2023-10-31T14:14:03;12.70;99.90
23597;DHT22;40226;50.874;4.394;2023-10-31T14:16:33;12.70;99.90
23597;DHT22;40226;50.874;4.394;2023-10-31T14:18:59;12.70;99.90
23597;DHT22;40226;50.874;4.394;2023-10-31T14:21:25;12.50;99.90
23597;DHT22;40226;50.874;4.394;2023-10-31T14:23:51;12.50;99.90
23597;DHT22;40226;50.874;4.394;2023-10-31T14:26:23;12.50;99.90
23597;DHT22;40226;50.874;4.394;2023-10-31T14:28:48;12.50;99.90
23597;DHT22;40226;50.874;4.394;2023-10-31T14:31:14;12.60;99.90
23597;DHT22;40226;50.874;4.394;2023-10-31T14:33:40;12.60;99.90
23597;DHT22;40226;50.874;4.394;2023-10-31T14:36:07;12.60;99.90
23597;DHT22;40226;50.874;4.394;2023-10-31T14:38:34;12.70;99.90
23597;DHT22;40226;50.874;4.394;2023-10-31T14:40:59;12.60;99.90
23597;DHT22;40226;50.874;4.394;2023-10-31T14:43:25;12.60;99.90
23597;DHT22;40226;50.874;4.394;2023-10-31T14:45:50;12.70;99.90
23597;DHT22;40226;50.874;4.394;2023-10-31T14:48:16;12.70;99.90
23597;DHT22;40226;50.874;4.394;2023-10-31T14:50:42;12.70;99.90
23597;DHT22;40226;50.874;4.394;2023-10-31T14:53:07;12.70;99.90
23597;DHT22;40226;50.874;4.394;2023-10-31T14:55:34;12.70;99.90
23597;DHT22;40226;50.874;4.394;2023-10-31T14:58:00;12.60;99.90
23597;DHT22;40226;50.874;4.394;2023-10-31T15:00:25;12.60;99.90
23597;DHT22;40226;50.874;4.394;2023-10-31T15:02:51;12.60;99.90
23597;DHT22;40226;50.874;4.394;2023-10-31T15:05:17;12.60;99.90
23597;DHT22;40226;50.874;4.394;2023-10-31T15:07:42;12.60;99.90
23597;DHT22;40226;50.874;4.394;2023-10-31T15:10:08;12.60;99.90
23597;DHT22;40226;50.874;4.394;2023-10-31T15:12:34;12.70;99.90
23597;DHT22;40226;50.874;4.394;2023-10-31T15:14:59;12.70;99.90
23597;DHT22;40226;50.874;4.394;2023-10-31T15:17:25;12.80;99.90
23597;DHT22;40226;50.874;4.394;2023-10-31T15:19:50;12.80;99.90
23597;DHT22;40226;50.874;4.394;2023-10-31T15:22:16;12.70;99.90
23597;DHT22;40226;50.874;4.394;2023-10-31T15:24:41;12.70;99.90
23597;DHT22;40226;50.874;4.394;2023-10-31T15:27:07;12.70;99.90
23597;DHT22;40226;50.874;4.394;2023-10-31T15:29:33;12.70;99.90
23597;DHT22;40226;50.874;4.394;2023-10-31T15:31:59;12.60;99.90